Track Черных Вячеслав

Time Latitude Longitude Accuracy (66% radius in meters) Altitude (meters) Speed (km/hour) Bearing (degrees) Battery (%) GPS flag
09:10:30 55.944037 38.068219 12 180.46045179227 0.22392795979977 24.31272315979 79 1 delete
09:10:21 55.944060 38.068198 8 180.39808162086 0.59033340215683 50.060283660889 79 1 delete
09:10:09 55.944027 38.068177 8 180.34953521902 0.80781775712967 59.612468719482 79 1 delete
09:10:03 55.944005 38.068085 8 180.27906263561 1.192929148674 73.732063293457 79 1 delete
09:09:57 55.943981 38.067993 6 180.21038576513 1.4285553693771 54.978382110596 79 1 delete
09:09:51 55.943961 38.067882 6 180.03793609026 1.4521915912628 64.532844543457 79 1 delete
09:09:48 55.943951 38.067801 6 179.94710612521 1.3100020885468 52.655353546143 79 1 delete
09:09:45 55.943931 38.067729 4 179.80108603729 1.1616576910019 69.372055053711 79 1 delete
09:09:39 55.943931 38.067671 8 179.54375989818 2.3473608493805 59.403232574463 79 1 delete
09:09:36 55.943897 38.067605 6 179.55133822545 4.2961254119873 53.903930664062 79 1 delete
09:09:33 55.943760 38.067419 6 180.58195725704 3.8157858848572 352.86053466797 79 1 delete
09:09:30 55.943587 38.067412 6 180.40958881433 3.3342714309692 38.844944000244 79 1 delete
09:09:27 55.943467 38.067185 6 181.15989077363 3.0726735591888 52.19722366333 79 1 delete
09:09:21 55.943406 38.066976 6 181.08304443147 3.8577353954315 64.381462097168 79 1 delete
09:09:18 55.943330 38.066917 6 181.0044915018 3.9133710861206 340.55786132812 79 1 delete
09:09:15 55.943220 38.066983 6 180.98265468903 3.8929011821747 342.43673706055 79 1 delete
09:09:12 55.943071 38.067066 6 181.0956474942 3.880633354187 348.22299194336 79 1 delete
09:09:09 55.942977 38.067108 6 181.01345812933 3.8937926292419 348.71325683594 79 1 delete
09:09:06 55.942854 38.067183 6 180.87240560528 3.7630896568298 334.80142211914 79 1 delete
09:09:03 55.942741 38.067287 6 180.3688436893 3.4991269111633 344.10113525391 79 1 delete
09:09:00 55.942611 38.067294 6 180.35388790364 3.4096713066101 344.70352172852 79 1 delete
09:08:57 55.942517 38.067294 6 180.23930714416 0 358.73788452148 79 1 delete
09:08:54 55.942429 38.067317 6 180.23486231199 3.4866535663605 94.395950317383 79 1 delete
09:08:51 55.942470 38.067125 6 180.24826366711 3.523779630661 124.15238189697 79 1 delete
09:08:48 55.942533 38.066981 6 180.16817957924 3.3734905719757 127.89019775391 79 1 delete
09:08:45 55.942541 38.066777 6 180.17384573679 2.9385838508606 46.460857391357 79 1 delete
09:08:42 55.942458 38.066657 6 180.24196972649 1.6589205265045 35.965675354004 79 1 delete
09:08:36 55.942392 38.066572 8 179.93431395862 0 57.667293548584 79 1 delete
09:08:33 55.942311 38.066548 6 179.87499689189 4.3124847412109 4.3243894577026 79 1 delete
09:08:30 55.942175 38.066564 6 180.29512168935 4.3238506317139 14.099020004272 79 1 delete
09:08:27 55.942063 38.066506 6 181.14351406982 4.4874110221863 355.72708129883 79 1 delete
09:08:24 55.941940 38.066468 6 181.56628205727 4.7047419548035 29.351081848145 79 1 delete
09:08:21 55.941831 38.066364 6 181.75989113841 5.011739730835 26.458410263062 79 1 delete
09:08:18 55.941761 38.066290 6 182.7294214668 5.1670737266541 83.502227783203 79 1 delete
09:08:15 55.941777 38.066000 6 183.1274566867 5.1211366653442 113.0234375 79 1 delete
09:08:12 55.941835 38.065751 6 183.93450945742 5.0035533905029 113.47515106201 79 1 delete
09:08:09 55.941908 38.065498 8 184.7635086649 4.8890838623047 121.0983505249 79 1 delete
09:08:06 55.942008 38.065294 16 184.75822971614 4.6061849594116 129.81980895996 79 1 delete
09:08:03 55.942104 38.065049 8 183.92897543275 4.3449926376343 89.969146728516 79 1 delete
09:08:00 55.942119 38.064853 6 183.82099729483 4.3884172439575 108.34547424316 79 1 delete
09:07:57 55.942160 38.064577 8 184.74926699573 4.2761144638062 108.37580108643 79 1 delete
09:07:54 55.942204 38.064314 6 186.40490226002 4.1680965423584 106.56610870361 79 1 delete
09:07:51 55.942254 38.064058 6 187.6783810672 4.0159783363342 123.24298858643 79 1 delete
09:07:48 55.942273 38.063801 8 186.87128843793 4.0617136955261 87.190711975098 79 1 delete
09:07:45 55.942267 38.063641 6 186.18656971294 4.1738848686218 90.09880065918 79 1 delete
09:07:42 55.942274 38.063431 8 185.43424869708 4.3242259025574 100.38906097412 79 1 delete
09:07:39 55.942296 38.063192 6 185.34547584226 4.3333435058594 103.12763977051 79 1 delete
09:07:36 55.942331 38.062909 6 185.43211139419 4.4811782836914 93.779998779297 79 1 delete
09:07:33 55.942339 38.062670 6 185.37815167743 4.6508159637451 97.889610290527 79 1 delete
09:07:30 55.942368 38.062375 6 184.88095348255 4.698872089386 80.981964111328 79 1 delete